createdAt,value
2023-12-26T00:00:00.856Z,87.57
2023-12-26T00:01:00.766Z,87.57
2023-12-26T00:02:00.728Z,87.46
2023-12-26T00:03:01.169Z,87.37
2023-12-26T00:04:00.836Z,87.46
2023-12-26T00:05:00.805Z,87.46
2023-12-26T00:06:01.042Z,87.57
2023-12-26T00:07:00.718Z,87.57
2023-12-26T00:08:00.686Z,87.46
2023-12-26T00:09:00.811Z,87.37
2023-12-26T00:10:00.752Z,87.26
2023-12-26T00:11:00.625Z,87.37
2023-12-26T00:12:00.727Z,87.37
2023-12-26T00:13:00.607Z,87.26
2023-12-26T00:14:00.616Z,87.26
2023-12-26T00:15:00.676Z,87.26
2023-12-26T00:16:00.733Z,87.05
2023-12-26T00:17:00.673Z,87.02
2023-12-26T00:18:00.806Z,87.12
2023-12-26T00:19:00.639Z,87.22
2023-12-26T00:20:00.519Z,87.22
2023-12-26T00:21:00.545Z,87.22
2023-12-26T00:22:00.515Z,87.12
2023-12-26T00:23:00.460Z,86.91
2023-12-26T00:24:00.512Z,86.81
2023-12-26T00:25:00.445Z,87.02
2023-12-26T00:26:00.444Z,87.02
2023-12-26T00:27:00.426Z,86.81
2023-12-26T00:28:00.405Z,86.81
2023-12-26T00:29:00.391Z,86.71
2023-12-26T00:30:00.463Z,86.60
2023-12-26T00:31:00.350Z,86.50
2023-12-26T00:32:00.365Z,86.40
2023-12-26T00:33:00.704Z,86.60
2023-12-26T00:34:00.491Z,86.81
2023-12-26T00:35:00.286Z,86.91
2023-12-26T00:36:00.319Z,86.91
2023-12-26T00:37:00.273Z,86.91
2023-12-26T00:38:00.286Z,86.91
2023-12-26T00:39:00.307Z,87.05
2023-12-26T00:40:03.998Z,86.95
2023-12-26T00:41:00.218Z,86.85
2023-12-26T00:42:00.315Z,86.95
2023-12-26T00:43:00.205Z,86.95
2023-12-26T00:44:00.199Z,86.75
2023-12-26T00:45:00.326Z,86.75
2023-12-26T00:46:00.203Z,86.95
2023-12-26T00:47:00.202Z,87.05
2023-12-26T00:48:00.274Z,87.16
2023-12-26T00:49:00.283Z,87.05
2023-12-26T00:50:00.168Z,87.16
2023-12-26T00:51:00.128Z,87.16
2023-12-26T00:52:00.101Z,87.05
2023-12-26T00:53:00.046Z,87.16
2023-12-26T00:54:00.089Z,87.16
2023-12-26T00:55:00.020Z,87.26
2023-12-26T00:56:00.050Z,87.16
2023-12-26T00:57:00.057Z,87.16
2023-12-26T00:58:00.001Z,87.16
2023-12-26T00:59:00.001Z,87.05
2023-12-26T01:00:00.021Z,86.85
2023-12-26T01:00:59.980Z,86.95
2023-12-26T01:01:59.967Z,87.05
2023-12-26T01:03:00.066Z,87.16
2023-12-26T01:03:59.982Z,87.16
2023-12-26T01:04:59.983Z,87.05
2023-12-26T01:06:00.038Z,87.16
2023-12-26T01:06:59.894Z,87.26
2023-12-26T01:07:59.877Z,87.16
2023-12-26T01:08:59.867Z,87.26
2023-12-26T01:09:59.873Z,87.26
2023-12-26T01:10:59.825Z,87.26
2023-12-26T01:11:59.875Z,87.37
2023-12-26T01:12:59.778Z,87.46
2023-12-26T01:13:59.816Z,87.46
2023-12-26T01:14:59.806Z,87.57
2023-12-26T01:15:59.776Z,87.67
2023-12-26T01:16:59.736Z,87.67
2023-12-26T01:18:00.101Z,87.67
2023-12-26T01:18:59.810Z,87.77
2023-12-26T01:19:59.733Z,87.88
2023-12-26T01:20:59.756Z,87.88
2023-12-26T01:21:59.692Z,87.88
2023-12-26T01:22:59.652Z,87.88
2023-12-26T01:23:59.717Z,88.08
2023-12-26T01:24:59.610Z,88.08
2023-12-26T01:25:59.621Z,88.02
2023-12-26T01:26:59.659Z,88.02
2023-12-26T01:27:59.617Z,88.02
2023-12-26T01:28:59.581Z,88.12
2023-12-26T01:29:59.605Z,88.12
2023-12-26T01:30:59.588Z,88.12
2023-12-26T01:31:59.601Z,88.23
2023-12-26T01:32:59.844Z,88.33
2023-12-26T01:33:59.600Z,88.33
2023-12-26T01:34:59.487Z,88.33
2023-12-26T01:35:59.553Z,88.23
2023-12-26T01:36:59.467Z,88.12
2023-12-26T01:37:59.471Z,87.92
2023-12-26T01:38:59.459Z,87.92
2023-12-26T01:39:59.481Z,88.02
2023-12-26T01:40:59.440Z,88.12
2023-12-26T01:41:59.456Z,88.12
2023-12-26T01:42:59.379Z,88.12
2023-12-26T01:43:59.411Z,88.12
2023-12-26T01:44:59.356Z,88.23
2023-12-26T01:45:59.403Z,88.23
2023-12-26T01:46:59.419Z,88.12
2023-12-26T01:47:59.430Z,88.23
2023-12-26T01:48:59.447Z,88.12
2023-12-26T01:49:59.448Z,88.02
2023-12-26T01:50:59.368Z,88.12
2023-12-26T01:51:59.351Z,88.12
2023-12-26T01:52:59.321Z,88.23
2023-12-26T01:53:59.331Z,88.12
2023-12-26T01:54:59.320Z,88.12
2023-12-26T01:55:59.225Z,88.23
2023-12-26T01:56:59.270Z,88.23
2023-12-26T01:57:59.184Z,88.12
2023-12-26T01:58:59.244Z,88.23
2023-12-26T01:59:59.219Z,88.23
2023-12-26T02:00:59.193Z,88.12
2023-12-26T02:01:59.147Z,88.12
2023-12-26T02:02:59.498Z,88.02
2023-12-26T02:03:59.139Z,88.12
2023-12-26T02:04:59.253Z,88.23
2023-12-26T02:05:59.132Z,88.23
2023-12-26T02:06:59.134Z,88.02
2023-12-26T02:07:59.055Z,87.92
2023-12-26T02:08:59.112Z,88.02
2023-12-26T02:09:59.053Z,88.12
2023-12-26T02:10:59.046Z,88.12
2023-12-26T02:11:59.046Z,88.12
2023-12-26T02:12:59.053Z,87.92
2023-12-26T02:13:59.011Z,87.92
2023-12-26T02:14:59.031Z,88.12
2023-12-26T02:15:58.973Z,88.02
2023-12-26T02:16:58.965Z,88.12
2023-12-26T02:17:59.047Z,88.02
2023-12-26T02:18:59.050Z,87.92
2023-12-26T02:19:58.980Z,88.02
2023-12-26T02:20:58.952Z,88.02
2023-12-26T02:21:58.870Z,87.92
2023-12-26T02:23:00.498Z,87.92
2023-12-26T02:23:58.940Z,87.82
2023-12-26T02:24:58.872Z,87.71
2023-12-26T02:25:58.833Z,87.71
2023-12-26T02:26:58.860Z,87.82
2023-12-26T02:27:58.861Z,87.61
2023-12-26T02:28:58.811Z,87.61
2023-12-26T02:29:58.838Z,87.61
2023-12-26T02:30:58.825Z,87.61
2023-12-26T02:31:58.765Z,87.51
2023-12-26T02:32:59.152Z,87.26
2023-12-26T02:33:58.847Z,87.20
2023-12-26T02:34:58.726Z,87.16
2023-12-26T02:35:58.728Z,87.05
2023-12-26T02:36:58.694Z,86.95
2023-12-26T02:37:58.691Z,86.85
2023-12-26T02:38:58.724Z,86.65
2023-12-26T02:39:58.646Z,86.54
2023-12-26T02:40:58.659Z,86.54
2023-12-26T02:41:58.638Z,86.54
2023-12-26T02:42:58.832Z,86.54
2023-12-26T02:43:58.573Z,86.44
2023-12-26T02:44:58.626Z,86.44
2023-12-26T02:45:58.604Z,86.33
2023-12-26T02:46:58.555Z,86.03
2023-12-26T02:47:58.660Z,86.03
2023-12-26T02:48:58.636Z,86.03
2023-12-26T02:49:58.508Z,86.13
2023-12-26T02:50:58.544Z,86.03
2023-12-26T02:51:58.503Z,85.93
2023-12-26T02:52:58.720Z,85.82
2023-12-26T02:53:58.480Z,85.62
2023-12-26T02:54:58.507Z,85.52
2023-12-26T02:55:58.440Z,85.52
2023-12-26T02:56:58.474Z,85.41
2023-12-26T02:57:58.424Z,85.31
2023-12-26T02:58:58.411Z,85.21
2023-12-26T02:59:58.388Z,85.21
2023-12-26T03:00:58.430Z,85.11
2023-12-26T03:01:58.354Z,85.00
2023-12-26T03:02:58.880Z,84.80
2023-12-26T03:03:58.412Z,84.80
2023-12-26T03:04:58.323Z,84.90
2023-12-26T03:05:58.413Z,84.76
2023-12-26T03:06:58.328Z,84.76
2023-12-26T03:07:58.313Z,84.66
2023-12-26T03:08:58.384Z,84.55
2023-12-26T03:09:58.261Z,84.66
2023-12-26T03:10:58.270Z,84.55
2023-12-26T03:11:58.258Z,84.34
2023-12-26T03:12:58.380Z,84.34
2023-12-26T03:13:58.214Z,84.34
2023-12-26T03:14:58.242Z,84.34
2023-12-26T03:15:58.153Z,84.45
2023-12-26T03:16:58.193Z,84.34
2023-12-26T03:17:58.340Z,84.34
2023-12-26T03:18:58.496Z,84.45
2023-12-26T03:19:58.177Z,84.45
2023-12-26T03:20:58.354Z,84.55
2023-12-26T03:21:58.259Z,84.59
2023-12-26T03:22:58.547Z,84.80
2023-12-26T03:23:58.265Z,84.69
2023-12-26T03:24:58.325Z,84.69
2023-12-26T03:25:58.055Z,84.66
2023-12-26T03:26:58.143Z,84.69
2023-12-26T03:27:58.043Z,84.59
2023-12-26T03:28:58.026Z,84.55
2023-12-26T03:29:58.032Z,84.76
2023-12-26T03:30:58.006Z,84.69
2023-12-26T03:31:57.962Z,84.66
2023-12-26T03:32:58.323Z,84.69
2023-12-26T03:33:58.060Z,84.80
2023-12-26T03:34:57.962Z,84.80
2023-12-26T03:35:57.939Z,84.76
2023-12-26T03:36:57.940Z,84.69
2023-12-26T03:37:57.902Z,84.69
2023-12-26T03:38:57.958Z,84.80
2023-12-26T03:39:57.842Z,84.69
2023-12-26T03:40:57.905Z,84.76
2023-12-26T03:41:57.870Z,84.59
2023-12-26T03:42:58.152Z,84.66
2023-12-26T03:43:57.815Z,84.66
2023-12-26T03:44:57.892Z,84.86
2023-12-26T03:45:57.758Z,84.90
2023-12-26T03:46:57.819Z,84.80
2023-12-26T03:47:58.030Z,84.80
2023-12-26T03:48:57.896Z,84.80
2023-12-26T03:49:57.746Z,85.00
2023-12-26T03:50:57.814Z,84.90
2023-12-26T03:51:57.704Z,84.66
2023-12-26T03:52:57.942Z,84.76
2023-12-26T03:53:57.696Z,84.76
2023-12-26T03:54:57.708Z,84.76
2023-12-26T03:55:57.667Z,85.00
2023-12-26T03:56:57.710Z,84.86
2023-12-26T03:57:57.621Z,84.86
2023-12-26T03:58:57.624Z,84.76
2023-12-26T03:59:57.645Z,84.76
2023-12-26T04:00:57.681Z,84.96
2023-12-26T04:01:57.553Z,84.96
2023-12-26T04:02:57.798Z,84.76
2023-12-26T04:03:57.637Z,84.86
2023-12-26T04:04:57.557Z,84.76
2023-12-26T04:05:57.582Z,84.76
2023-12-26T04:06:57.528Z,84.66
2023-12-26T04:07:57.489Z,84.76
2023-12-26T04:08:57.529Z,84.66
2023-12-26T04:09:57.457Z,84.55
2023-12-26T04:10:57.454Z,84.45
2023-12-26T04:11:57.485Z,84.55
2023-12-26T04:12:57.492Z,84.34
2023-12-26T04:13:57.425Z,84.45
2023-12-26T04:14:57.491Z,84.55
2023-12-26T04:15:57.390Z,84.45
2023-12-26T04:16:58.386Z,84.25
2023-12-26T04:17:57.513Z,84.25
2023-12-26T04:18:57.573Z,84.34
2023-12-26T04:19:57.314Z,84.34
2023-12-26T04:20:57.424Z,84.25
2023-12-26T04:21:57.295Z,84.25
2023-12-26T04:22:57.575Z,84.25
2023-12-26T04:23:57.286Z,84.04
2023-12-26T04:24:57.804Z,84.14
2023-12-26T04:25:57.238Z,84.14
2023-12-26T04:26:57.305Z,84.25
2023-12-26T04:27:57.231Z,84.14
2023-12-26T04:28:57.254Z,84.14
2023-12-26T04:29:57.258Z,84.25
2023-12-26T04:30:57.230Z,84.04
2023-12-26T04:31:57.175Z,84.14
2023-12-26T04:32:57.523Z,84.34
2023-12-26T04:33:57.268Z,84.14
2023-12-26T04:34:57.148Z,84.14
2023-12-26T04:35:57.116Z,84.14
2023-12-26T04:36:57.110Z,83.83
2023-12-26T04:37:57.080Z,83.83
2023-12-26T04:38:57.132Z,83.94
2023-12-26T04:39:57.066Z,83.94
2023-12-26T04:40:57.058Z,84.14
2023-12-26T04:41:57.069Z,84.14
2023-12-26T04:42:57.243Z,83.83
2023-12-26T04:43:57.018Z,83.83
2023-12-26T04:44:57.068Z,84.04
2023-12-26T04:45:57.000Z,83.94
2023-12-26T04:46:56.997Z,83.73
2023-12-26T04:47:57.146Z,83.73
2023-12-26T04:48:57.089Z,83.73
2023-12-26T04:49:56.953Z,83.73
2023-12-26T04:50:56.955Z,83.94
2023-12-26T04:51:56.887Z,83.63
2023-12-26T04:52:57.174Z,83.63
2023-12-26T04:53:56.893Z,83.53
2023-12-26T04:54:56.893Z,83.63
2023-12-26T04:55:56.844Z,83.53
2023-12-26T04:56:56.904Z,83.53
2023-12-26T04:57:56.835Z,83.32
2023-12-26T04:58:56.830Z,83.42
2023-12-26T04:59:56.901Z,83.42
2023-12-26T05:00:56.838Z,83.53
2023-12-26T05:01:56.787Z,83.53
2023-12-26T05:02:57.226Z,83.63
2023-12-26T05:03:56.894Z,83.63
2023-12-26T05:04:56.791Z,83.63
2023-12-26T05:05:56.803Z,83.63
2023-12-26T05:06:56.727Z,83.53
2023-12-26T05:07:56.688Z,83.53
2023-12-26T05:08:56.757Z,83.42
2023-12-26T05:09:56.665Z,83.32
2023-12-26T05:10:56.681Z,83.32
2023-12-26T05:11:56.668Z,83.12
2023-12-26T05:12:56.921Z,83.22
2023-12-26T05:13:56.614Z,83.32
2023-12-26T05:14:56.644Z,83.32
2023-12-26T05:15:56.594Z,83.01
2023-12-26T05:16:56.632Z,83.01
2023-12-26T05:17:56.660Z,83.12
2023-12-26T05:18:56.785Z,83.12
2023-12-26T05:19:59.237Z,83.12
2023-12-26T05:20:56.608Z,82.91
2023-12-26T05:21:56.511Z,82.91
2023-12-26T05:22:56.782Z,83.07
2023-12-26T05:23:56.499Z,83.01
2023-12-26T05:24:56.533Z,83.12
2023-12-26T05:26:04.442Z,83.01
2023-12-26T05:26:56.516Z,82.97
2023-12-26T05:27:56.449Z,82.77
2023-12-26T05:28:56.464Z,83.01
2023-12-26T05:29:56.432Z,82.97
2023-12-26T05:30:56.452Z,82.97
2023-12-26T05:31:56.370Z,82.77
2023-12-26T05:32:56.772Z,82.67
2023-12-26T05:33:56.499Z,82.77
2023-12-26T05:34:56.450Z,82.67
2023-12-26T05:35:56.335Z,82.87
2023-12-26T05:36:56.346Z,82.77
2023-12-26T05:37:56.274Z,82.56
2023-12-26T05:38:56.361Z,82.67
2023-12-26T05:39:56.258Z,82.67
2023-12-26T05:40:56.278Z,82.56
2023-12-26T05:41:56.282Z,82.56
2023-12-26T05:42:56.770Z,82.46
2023-12-26T05:43:56.206Z,82.56
2023-12-26T05:44:56.298Z,82.67
2023-12-26T05:45:56.239Z,82.15
2023-12-26T05:46:56.211Z,82.15
2023-12-26T05:47:56.312Z,82.15
2023-12-26T05:48:56.303Z,82.36
2023-12-26T05:49:56.255Z,82.36
2023-12-26T05:50:56.176Z,82.36
2023-12-26T05:51:56.110Z,82.26
2023-12-26T05:52:56.518Z,82.26
2023-12-26T05:53:56.116Z,82.26
2023-12-26T05:54:56.114Z,82.46
2023-12-26T05:55:56.051Z,82.46
2023-12-26T05:56:56.096Z,82.56
2023-12-26T05:57:56.066Z,82.56
2023-12-26T05:58:56.066Z,82.67
2023-12-26T05:59:56.020Z,82.36
2023-12-26T06:00:56.028Z,82.46
2023-12-26T06:01:55.972Z,82.67
2023-12-26T06:02:56.276Z,82.67
2023-12-26T06:03:56.046Z,82.56
2023-12-26T06:04:55.947Z,82.67
2023-12-26T06:05:55.957Z,82.77
2023-12-26T06:06:56.031Z,82.87
2023-12-26T06:07:55.949Z,82.87
2023-12-26T06:08:55.906Z,82.67
2023-12-26T06:09:55.903Z,82.87
2023-12-26T06:10:55.855Z,82.87
2023-12-26T06:11:55.889Z,82.87
2023-12-26T06:12:56.078Z,82.87
2023-12-26T06:13:55.859Z,82.97
2023-12-26T06:14:55.832Z,83.07
2023-12-26T06:15:55.813Z,83.28
2023-12-26T06:16:55.781Z,83.22
2023-12-26T06:17:55.963Z,83.32
2023-12-26T06:18:56.045Z,83.53
2023-12-26T06:19:55.842Z,83.42
2023-12-26T06:20:55.764Z,83.53
2023-12-26T06:21:55.781Z,83.42
2023-12-26T06:22:55.960Z,83.63
2023-12-26T06:23:55.752Z,83.73
2023-12-26T06:24:55.708Z,83.73
2023-12-26T06:25:55.678Z,83.73
2023-12-26T06:26:55.647Z,83.83
2023-12-26T06:27:55.660Z,83.83
2023-12-26T06:28:55.626Z,83.83
2023-12-26T06:29:55.709Z,83.94
2023-12-26T06:30:55.634Z,83.94
2023-12-26T06:31:55.700Z,83.83
2023-12-26T06:32:55.875Z,83.94
2023-12-26T06:33:55.764Z,84.14
2023-12-26T06:34:55.562Z,84.04
2023-12-26T06:35:55.619Z,84.14
2023-12-26T06:36:55.541Z,84.14
2023-12-26T06:37:55.530Z,84.04
2023-12-26T06:38:55.524Z,84.14
2023-12-26T06:39:55.482Z,84.14
2023-12-26T06:40:55.483Z,84.04
2023-12-26T06:41:55.487Z,83.94
2023-12-26T06:42:55.840Z,83.83
2023-12-26T06:43:55.470Z,84.04
2023-12-26T06:44:55.468Z,84.04
2023-12-26T06:45:55.415Z,84.04
2023-12-26T06:46:55.393Z,83.83
2023-12-26T06:47:55.528Z,83.83
2023-12-26T06:48:55.467Z,83.94
2023-12-26T06:49:55.390Z,83.94
2023-12-26T06:50:55.355Z,83.94
2023-12-26T06:51:55.346Z,83.94
2023-12-26T06:52:55.848Z,83.94
2023-12-26T06:53:55.356Z,83.73
2023-12-26T06:54:55.279Z,83.73
2023-12-26T06:55:55.281Z,83.63
2023-12-26T06:56:55.281Z,83.73
2023-12-26T06:57:55.256Z,83.73
2023-12-26T06:58:55.241Z,83.73
2023-12-26T06:59:55.262Z,83.83
2023-12-26T07:00:55.228Z,83.83
2023-12-26T07:01:55.203Z,83.83
2023-12-26T07:02:55.629Z,83.83
2023-12-26T07:03:55.282Z,83.83
2023-12-26T07:04:55.169Z,83.94
2023-12-26T07:05:55.183Z,83.94
2023-12-26T07:06:55.127Z,83.94
2023-12-26T07:07:55.147Z,83.94
2023-12-26T07:08:55.158Z,83.83
2023-12-26T07:09:55.093Z,83.94
2023-12-26T07:10:55.055Z,84.14
2023-12-26T07:11:55.103Z,84.14
2023-12-26T07:12:55.352Z,83.94
2023-12-26T07:13:55.052Z,83.94
2023-12-26T07:14:55.091Z,83.94
2023-12-26T07:15:55.033Z,84.04
2023-12-26T07:16:54.994Z,84.14
2023-12-26T07:17:57.712Z,84.14
2023-12-26T07:18:55.254Z,84.25
2023-12-26T07:19:54.959Z,84.14
2023-12-26T07:20:54.937Z,84.14
2023-12-26T07:21:54.967Z,84.14
2023-12-26T07:22:55.242Z,84.25
2023-12-26T07:23:54.955Z,84.34
2023-12-26T07:24:54.903Z,84.14
2023-12-26T07:25:54.903Z,84.14
2023-12-26T07:26:54.910Z,84.34
2023-12-26T07:27:54.908Z,84.25
2023-12-26T07:28:54.826Z,84.45
2023-12-26T07:29:54.878Z,84.45
2023-12-26T07:30:54.862Z,84.45
2023-12-26T07:31:54.851Z,84.34
2023-12-26T07:32:55.197Z,84.55
2023-12-26T07:33:54.961Z,84.66
2023-12-26T07:34:54.810Z,84.66
2023-12-26T07:35:54.743Z,84.66
2023-12-26T07:36:54.741Z,84.76
2023-12-26T07:37:54.765Z,84.86
2023-12-26T07:38:54.779Z,84.96
2023-12-26T07:39:54.714Z,84.96
2023-12-26T07:40:54.693Z,85.06
2023-12-26T07:41:54.720Z,85.06
2023-12-26T07:42:54.824Z,85.06
2023-12-26T07:43:54.691Z,85.06
2023-12-26T07:44:54.703Z,84.86
2023-12-26T07:45:54.624Z,85.06
2023-12-26T07:46:54.581Z,85.06
2023-12-26T07:47:54.806Z,85.17
2023-12-26T07:48:54.808Z,85.27
2023-12-26T07:49:54.690Z,85.27
2023-12-26T07:50:54.596Z,85.17
2023-12-26T07:51:54.553Z,85.06
2023-12-26T07:52:54.754Z,85.31
2023-12-26T07:53:54.559Z,85.17
2023-12-26T07:54:54.490Z,85.17
2023-12-26T07:55:54.510Z,85.17
2023-12-26T07:56:54.468Z,85.06
2023-12-26T07:57:54.495Z,85.31
2023-12-26T07:58:54.456Z,85.17
2023-12-26T07:59:54.509Z,85.17
2023-12-26T08:00:54.465Z,85.06
2023-12-26T08:01:54.452Z,85.17
2023-12-26T08:02:54.769Z,84.96
2023-12-26T08:03:54.520Z,84.86
2023-12-26T08:04:54.415Z,84.96
2023-12-26T08:05:54.432Z,85.06
2023-12-26T08:06:54.350Z,84.86
2023-12-26T08:07:54.325Z,84.86
2023-12-26T08:08:54.340Z,84.86
2023-12-26T08:09:54.356Z,84.96
2023-12-26T08:10:54.306Z,84.96
2023-12-26T08:11:54.285Z,85.06
2023-12-26T08:12:54.369Z,85.17
2023-12-26T08:13:54.293Z,85.17
2023-12-26T08:14:54.310Z,85.27
2023-12-26T08:15:54.260Z,85.17
2023-12-26T08:16:54.221Z,85.38
2023-12-26T08:17:54.503Z,85.38
2023-12-26T08:18:54.277Z,85.47
2023-12-26T08:19:54.181Z,85.58
2023-12-26T08:20:54.158Z,85.78
2023-12-26T08:21:54.149Z,85.58
2023-12-26T08:22:54.534Z,85.58
2023-12-26T08:23:54.181Z,85.78
2023-12-26T08:24:54.142Z,85.89
2023-12-26T08:25:54.118Z,86.19
2023-12-26T08:26:54.131Z,86.50
2023-12-26T08:27:54.097Z,86.71
2023-12-26T08:28:54.030Z,86.81
2023-12-26T08:29:54.082Z,86.95
2023-12-26T08:30:54.058Z,86.95
2023-12-26T08:31:54.036Z,87.26
2023-12-26T08:32:54.250Z,87.46
2023-12-26T08:33:54.248Z,87.46
2023-12-26T08:34:53.964Z,87.46
2023-12-26T08:35:54.087Z,87.67
2023-12-26T08:36:53.950Z,87.67
2023-12-26T08:37:54.066Z,87.77
2023-12-26T08:38:53.961Z,87.77
2023-12-26T08:39:53.911Z,87.88
2023-12-26T08:40:53.893Z,87.88
2023-12-26T08:41:53.890Z,87.88
2023-12-26T08:42:54.010Z,87.88
2023-12-26T08:43:53.879Z,87.77
2023-12-26T08:44:53.877Z,87.67
2023-12-26T08:45:53.843Z,87.46
2023-12-26T08:46:53.821Z,87.67
2023-12-26T08:47:53.956Z,87.57
2023-12-26T08:48:53.899Z,87.57
2023-12-26T08:49:53.805Z,87.77
2023-12-26T08:50:53.750Z,87.88
2023-12-26T08:51:53.755Z,88.08
2023-12-26T08:52:54.029Z,88.08
2023-12-26T08:53:53.743Z,87.88
2023-12-26T08:54:53.729Z,87.98
2023-12-26T08:55:53.712Z,87.88
2023-12-26T08:56:53.685Z,87.98
2023-12-26T08:57:53.671Z,88.18
2023-12-26T08:58:53.631Z,88.29
2023-12-26T08:59:53.674Z,88.59
2023-12-26T09:00:53.662Z,88.80
2023-12-26T09:01:53.624Z,89.01
2023-12-26T09:03:00.237Z,89.31
2023-12-26T09:03:53.669Z,89.62
2023-12-26T09:04:53.547Z,90.03
2023-12-26T09:05:53.707Z,90.34
2023-12-26T09:06:53.701Z,90.55
2023-12-26T09:07:53.541Z,90.85
2023-12-26T09:08:53.540Z,91.06
2023-12-26T09:09:53.582Z,91.47
2023-12-26T09:10:53.483Z,91.88
2023-12-26T09:11:53.530Z,91.99
2023-12-26T09:12:53.557Z,92.23
2023-12-26T09:13:53.464Z,92.33
2023-12-26T09:14:53.493Z,92.44
2023-12-26T09:15:53.444Z,92.74
2023-12-26T09:16:53.397Z,93.05
2023-12-26T09:17:53.567Z,93.26
2023-12-26T09:18:53.483Z,93.46
2023-12-26T09:19:53.375Z,93.67
2023-12-26T09:20:53.745Z,93.77
2023-12-26T09:21:53.354Z,93.87
2023-12-26T09:22:53.436Z,94.08
2023-12-26T09:23:53.347Z,94.18
2023-12-26T09:24:53.279Z,94.49
2023-12-26T09:25:53.331Z,94.70
2023-12-26T09:26:53.270Z,94.90
2023-12-26T09:27:53.289Z,95.21
2023-12-26T09:28:53.273Z,95.52
2023-12-26T09:29:53.329Z,95.83
2023-12-26T09:30:53.250Z,96.03
2023-12-26T09:31:53.233Z,96.14
2023-12-26T09:32:53.421Z,96.39
2023-12-26T09:33:53.327Z,96.55
2023-12-26T09:34:53.252Z,96.75
2023-12-26T09:35:53.189Z,96.85
2023-12-26T09:36:53.118Z,96.95
2023-12-26T09:37:53.120Z,97.00
2023-12-26T09:38:53.200Z,96.95
2023-12-26T09:39:53.097Z,97.10
2023-12-26T09:40:53.103Z,97.06
2023-12-26T09:41:53.127Z,97.10
2023-12-26T09:42:53.152Z,97.00
2023-12-26T09:43:53.059Z,96.80
2023-12-26T09:44:53.071Z,96.69
2023-12-26T09:45:53.043Z,96.69
2023-12-26T09:46:53.028Z,96.69
2023-12-26T09:47:53.122Z,96.69
2023-12-26T09:48:53.267Z,96.69
2023-12-26T09:49:53.076Z,96.59
2023-12-26T09:50:53.139Z,96.48
2023-12-26T09:51:53.014Z,96.48
2023-12-26T09:52:53.067Z,96.39
2023-12-26T09:53:52.929Z,96.18
2023-12-26T09:54:52.919Z,96.08
2023-12-26T09:55:52.882Z,95.93
2023-12-26T09:56:52.945Z,96.03
2023-12-26T09:57:52.848Z,95.97
2023-12-26T09:58:52.889Z,95.77
2023-12-26T09:59:52.919Z,95.56
2023-12-26T10:00:52.856Z,95.46
2023-12-26T10:01:52.823Z,95.42
2023-12-26T10:02:52.933Z,95.31
2023-12-26T10:03:52.805Z,95.21
2023-12-26T10:04:52.968Z,95.10
2023-12-26T10:05:52.775Z,95.10
2023-12-26T10:06:52.767Z,95.10
2023-12-26T10:07:52.733Z,95.10
2023-12-26T10:08:52.760Z,94.90
2023-12-26T10:09:52.692Z,94.70
2023-12-26T10:10:52.731Z,94.70
2023-12-26T10:11:52.703Z,94.70
2023-12-26T10:12:52.684Z,94.70
2023-12-26T10:13:52.629Z,94.59
2023-12-26T10:14:52.728Z,94.70
2023-12-26T10:15:52.607Z,94.59
2023-12-26T10:16:52.631Z,94.49
2023-12-26T10:17:52.768Z,94.59
2023-12-26T10:18:52.889Z,94.49
2023-12-26T10:19:52.590Z,94.49
2023-12-26T10:20:52.612Z,94.49
2023-12-26T10:21:52.575Z,94.39
2023-12-26T10:22:52.559Z,94.49
2023-12-26T10:23:52.603Z,94.59
2023-12-26T10:24:52.485Z,94.59
2023-12-26T10:25:52.524Z,94.59
2023-12-26T10:26:52.537Z,94.59
2023-12-26T10:27:52.494Z,94.70
2023-12-26T10:28:52.462Z,94.80
2023-12-26T10:29:52.515Z,94.90
2023-12-26T10:30:52.478Z,95.01
2023-12-26T10:31:52.454Z,95.01
2023-12-26T10:32:52.512Z,95.10
2023-12-26T10:33:52.496Z,95.21
2023-12-26T10:34:52.396Z,95.42
2023-12-26T10:35:52.443Z,95.62
2023-12-26T10:36:52.348Z,95.83
2023-12-26T10:37:52.371Z,95.93
2023-12-26T10:38:52.316Z,95.93
2023-12-26T10:39:52.303Z,95.93
2023-12-26T10:40:52.346Z,96.14
2023-12-26T10:41:52.385Z,96.23
2023-12-26T10:42:52.311Z,96.44
2023-12-26T10:43:52.267Z,96.65
2023-12-26T10:44:52.256Z,96.65
2023-12-26T10:45:52.274Z,96.75
2023-12-26T10:46:52.227Z,96.85
2023-12-26T10:47:52.413Z,97.06
2023-12-26T10:48:52.280Z,97.16
2023-12-26T10:49:52.259Z,97.27
2023-12-26T10:50:52.220Z,97.06
2023-12-26T10:51:52.191Z,97.16
2023-12-26T10:52:52.167Z,97.27
2023-12-26T10:53:52.238Z,97.37
2023-12-26T10:54:52.105Z,97.37
2023-12-26T10:55:52.169Z,97.47
2023-12-26T10:56:52.115Z,97.37
2023-12-26T10:57:52.103Z,97.41
2023-12-26T10:58:52.082Z,97.47
2023-12-26T10:59:52.088Z,97.52
2023-12-26T11:00:52.152Z,97.62
2023-12-26T11:01:52.191Z,97.62
2023-12-26T11:02:52.022Z,97.72
2023-12-26T11:03:52.205Z,97.82
2023-12-26T11:04:52.032Z,97.82
2023-12-26T11:05:52.057Z,97.82
2023-12-26T11:06:51.971Z,97.82
2023-12-26T11:07:51.987Z,97.82
2023-12-26T11:08:51.995Z,97.82
2023-12-26T11:09:51.956Z,97.88
2023-12-26T11:10:51.914Z,97.99
2023-12-26T11:11:51.929Z,98.08
2023-12-26T11:12:51.911Z,98.19
2023-12-26T11:13:51.888Z,98.19
2023-12-26T11:14:51.883Z,98.24
2023-12-26T11:15:51.872Z,98.24
2023-12-26T11:16:51.827Z,98.33
2023-12-26T11:17:51.979Z,98.44
2023-12-26T11:18:51.924Z,98.44
2023-12-26T11:19:51.837Z,98.54
2023-12-26T11:20:51.768Z,98.65
2023-12-26T11:21:51.773Z,98.70
2023-12-26T11:22:51.740Z,98.85
2023-12-26T11:23:51.839Z,98.96
2023-12-26T11:24:51.710Z,99.01
2023-12-26T11:25:51.754Z,99.11
2023-12-26T11:26:51.725Z,99.11
2023-12-26T11:27:51.720Z,99.16
2023-12-26T11:28:51.665Z,99.16
2023-12-26T11:29:51.728Z,99.05
2023-12-26T11:30:51.758Z,99.05
2023-12-26T11:31:51.666Z,99.16
2023-12-26T11:32:51.684Z,99.26
2023-12-26T11:33:51.998Z,99.37
2023-12-26T11:34:51.585Z,99.47
2023-12-26T11:35:51.605Z,99.47
2023-12-26T11:36:51.537Z,99.57
2023-12-26T11:37:51.620Z,99.57
2023-12-26T11:38:51.627Z,99.67
2023-12-26T11:39:51.560Z,99.77
2023-12-26T11:40:51.489Z,99.88
2023-12-26T11:41:51.603Z,99.98
2023-12-26T11:42:51.534Z,99.99
2023-12-26T11:43:51.488Z,99.99
2023-12-26T11:44:51.452Z,99.99
2023-12-26T11:45:51.489Z,99.99
2023-12-26T11:46:51.420Z,99.99
2023-12-26T11:47:51.529Z,99.99
2023-12-26T11:48:53.768Z,99.99
2023-12-26T11:49:51.460Z,99.99
2023-12-26T11:50:51.412Z,99.99
2023-12-26T11:51:51.464Z,99.99
2023-12-26T11:52:51.340Z,99.99
2023-12-26T11:53:51.364Z,99.99
2023-12-26T11:54:51.324Z,99.99
2023-12-26T11:55:51.349Z,99.99
2023-12-26T11:56:51.321Z,99.99
2023-12-26T11:57:51.304Z,99.99
2023-12-26T11:58:51.280Z,99.99
2023-12-26T11:59:54.631Z,99.99
2023-12-26T12:00:51.268Z,99.99
2023-12-26T12:01:51.259Z,99.99
2023-12-26T12:02:51.215Z,99.99
2023-12-26T12:03:51.320Z,99.99
2023-12-26T12:04:51.197Z,99.99
2023-12-26T12:05:51.306Z,99.99
2023-12-26T12:06:51.305Z,99.98
2023-12-26T12:07:51.180Z,99.88
2023-12-26T12:08:51.177Z,99.88
2023-12-26T12:09:51.145Z,99.77
2023-12-26T12:10:51.135Z,99.57
2023-12-26T12:11:51.163Z,99.57
2023-12-26T12:12:51.077Z,99.47
2023-12-26T12:13:51.094Z,99.37
2023-12-26T12:14:51.060Z,99.26
2023-12-26T12:15:51.065Z,99.11
2023-12-26T12:16:51.042Z,99.01
2023-12-26T12:17:51.177Z,98.91
2023-12-26T12:18:51.060Z,98.80
2023-12-26T12:19:51.107Z,98.70
2023-12-26T12:20:50.972Z,98.60
2023-12-26T12:21:50.982Z,98.60
2023-12-26T12:22:50.962Z,98.50
2023-12-26T12:23:50.973Z,98.50
2023-12-26T12:24:50.929Z,98.50
2023-12-26T12:25:50.937Z,98.60
2023-12-26T12:26:50.974Z,98.60
2023-12-26T12:27:50.915Z,98.60
2023-12-26T12:28:50.873Z,98.60
2023-12-26T12:29:50.946Z,98.60
2023-12-26T12:30:50.880Z,98.50
2023-12-26T12:31:50.873Z,98.29
2023-12-26T12:32:50.927Z,98.19
2023-12-26T12:33:50.945Z,98.08
2023-12-26T12:34:50.781Z,98.08
2023-12-26T12:35:50.876Z,97.99
2023-12-26T12:36:50.789Z,97.99
2023-12-26T12:37:50.766Z,97.78
2023-12-26T12:38:50.904Z,97.67
2023-12-26T12:39:50.751Z,97.57
2023-12-26T12:40:50.712Z,97.57
2023-12-26T12:41:50.752Z,97.47
2023-12-26T12:42:50.691Z,97.42
2023-12-26T12:43:50.725Z,97.32
2023-12-26T12:44:50.712Z,97.22
2023-12-26T12:45:50.674Z,97.22
2023-12-26T12:46:50.643Z,97.12
2023-12-26T12:47:50.705Z,96.91
2023-12-26T12:48:50.794Z,96.81
2023-12-26T12:49:50.720Z,96.70
2023-12-26T12:50:50.625Z,96.60
2023-12-26T12:51:50.610Z,96.50